Time;durP1;ratioP1;P1;durP2;ratioP2;P2;SDS_P1;SDS_P2;PMS_P1;PMS_P2;Temp;Humidity;BMP_temperature;BMP_pressure;BME280_temperature;BME280_humidity;BME280_pressure;Samples;Min_cycle;Max_cycle;Signal;HPM_P1;HPM_P2
2021/10/03 00:00:30;;;;;;;5.13;2.95;;;;;;;14.84;72.24;95447.06;4934900;29;20098;-76
2021/10/03 00:02:57;;;;;;;6.57;3.50;;;;;;;14.89;72.02;95435.03;4969588;28;20034;-76
2021/10/03 00:05:24;;;;;;;5.20;3.28;;;;;;;14.82;72.15;95435.88;4966104;28;20061;-77
2021/10/03 00:07:55;;;;;;;5.30;3.30;;;;;;;14.91;71.63;95433.00;4953892;28;20044;-76
2021/10/03 00:10:24;;;;;;;6.50;3.40;;;;;;;15.00;71.47;95437.88;4937225;28;20031;-76
2021/10/03 00:13:07;;;;;;;6.17;3.53;;;;;;;14.84;72.05;95441.78;4953240;28;20405;-76
2021/10/03 00:15:37;;;;;;;6.97;3.10;;;;;;;14.85;71.00;95434.63;4966107;28;20038;-76
2021/10/03 00:18:05;;;;;;;6.83;3.17;;;;;;;14.74;72.00;95444.00;4938902;28;20807;-76
2021/10/03 00:20:31;;;;;;;8.10;3.17;;;;;;;14.84;70.73;95447.06;4955572;28;20117;-77
2021/10/03 00:22:57;;;;;;;5.40;3.30;;;;;;;14.74;71.60;95453.78;4950875;29;20027;-77
2021/10/03 00:25:26;;;;;;;5.55;2.97;;;;;;;14.76;70.88;95451.78;4924919;28;21718;-77
2021/10/03 00:27:53;;;;;;;4.50;2.83;;;;;;;14.88;70.10;95442.16;4947022;28;20031;-77
2021/10/03 00:30:20;;;;;;;5.25;2.90;;;;;;;14.78;70.99;95458.47;4959449;28;20036;-77
2021/10/03 00:32:48;;;;;;;7.10;3.38;;;;;;;14.63;72.76;95447.28;4949396;28;20031;-76
2021/10/03 00:35:14;;;;;;;5.50;3.25;;;;;;;14.67;72.33;95437.09;4930725;28;20050;-76
2021/10/03 00:37:41;;;;;;;5.93;3.60;;;;;;;14.77;72.17;95433.03;4934821;28;20478;-76
2021/10/03 00:40:08;;;;;;;7.00;3.80;;;;;;;14.79;71.95;95423.06;4929351;28;20027;-76
2021/10/03 00:42:38;;;;;;;5.30;2.87;;;;;;;14.68;72.74;95426.31;4953746;28;20034;-76
2021/10/03 00:45:08;;;;;;;4.90;3.00;;;;;;;14.67;72.72;95431.81;4950624;28;20645;-77
2021/10/03 00:47:33;;;;;;;6.23;3.10;;;;;;;14.58;73.78;95424.06;4934513;28;20047;-77
2021/10/03 00:49:59;;;;;;;5.33;3.07;;;;;;;14.54;74.99;95443.22;4953596;28;20085;-76
2021/10/03 00:52:25;;;;;;;6.00;3.72;;;;;;;14.49;75.23;95429.75;4937508;28;20043;-76
2021/10/03 00:54:54;;;;;;;5.03;2.80;;;;;;;14.34;77.19;95432.56;4943265;28;20043;-76
2021/10/03 00:57:20;;;;;;;7.73;4.00;;;;;;;14.26;79.08;95428.31;4938704;28;20060;-76
2021/10/03 00:59:45;;;;;;;7.00;4.00;;;;;;;14.24;80.17;95432.97;4952470;28;20739;-76
2021/10/03 01:02:11;;;;;;;8.03;5.50;;;;;;;14.22;80.71;95432.38;4952924;28;20038;-76
2021/10/03 01:04:37;;;;;;;8.33;4.37;;;;;;;14.14;82.02;95433.34;4943874;28;20065;-77
2021/10/03 01:07:03;;;;;;;8.03;4.80;;;;;;;14.17;81.96;95426.88;4948895;29;20035;-76
2021/10/03 01:09:31;;;;;;;6.83;3.63;;;;;;;14.19;81.41;95416.91;4949370;28;20030;-76
2021/10/03 01:11:57;;;;;;;7.67;4.80;;;;;;;14.13;82.62;95430.94;4950246;28;20034;-76
2021/10/03 01:14:22;;;;;;;7.27;4.37;;;;;;;14.13;82.15;95415.88;4940462;28;20026;-76
2021/10/03 01:16:49;;;;;;;6.77;3.73;;;;;;;14.30;77.56;95418.94;4953456;28;20050;-76
2021/10/03 01:19:17;;;;;;;7.73;4.07;;;;;;;14.30;78.93;95410.19;4953598;28;20104;-76
2021/10/03 01:21:45;;;;;;;8.17;3.50;;;;;;;14.34;78.41;95400.84;4950493;28;20548;-76
2021/10/03 01:24:11;;;;;;;6.53;3.60;;;;;;;14.45;76.24;95412.63;4966124;28;20063;-76
2021/10/03 01:26:37;;;;;;;13.10;3.70;;;;;;;14.56;75.50;95410.25;4945660;28;20035;-76
2021/10/03 01:29:03;;;;;;;9.27;3.73;;;;;;;14.49;75.70;95414.69;4946112;28;20022;-77
2021/10/03 01:31:32;;;;;;;6.60;4.33;;;;;;;14.51;75.30;95412.66;4937482;28;20062;-77
2021/10/03 01:33:58;;;;;;;6.33;3.73;;;;;;;14.58;74.45;95396.78;4934909;28;20106;-76
2021/10/03 01:36:27;;;;;;;6.60;3.63;;;;;;;14.62;73.98;95400.69;4950788;28;20138;-76
2021/10/03 01:38:58;;;;;;;4.87;3.03;;;;;;;14.58;74.76;95420.59;4942545;28;20041;-76
2021/10/03 01:41:24;;;;;;;5.63;3.53;;;;;;;14.48;75.34;95406.94;4936383;28;20142;-75
2021/10/03 01:43:50;;;;;;;6.63;3.87;;;;;;;14.41;76.49;95398.19;4940561;28;20034;-76
2021/10/03 01:46:16;;;;;;;6.07;3.80;;;;;;;14.34;76.86;95422.81;4958936;28;20035;-76
2021/10/03 01:48:42;;;;;;;5.87;3.53;;;;;;;14.23;77.20;95404.91;4930670;28;20521;-76
2021/10/03 01:51:11;;;;;;;6.10;3.40;;;;;;;14.15;78.71;95403.28;4960341;28;20093;-76
2021/10/03 01:53:47;;;;;;;5.87;3.73;;;;;;;14.01;81.15;95400.81;4925487;28;20029;-76
2021/10/03 01:56:19;;;;;;;6.80;3.90;;;;;;;13.95;82.12;95409.53;4946280;28;20161;-76
2021/10/03 01:58:51;;;;;;;7.17;4.23;;;;;;;13.89;82.71;95403.22;4953772;28;20046;-76
2021/10/03 02:01:29;;;;;;;7.70;3.57;;;;;;;13.86;82.14;95414.19;4970404;28;20057;-76
2021/10/03 02:03:55;;;;;;;7.23;3.50;;;;;;;13.81;83.35;95400.75;4947132;28;21584;-76
2021/10/03 02:06:23;;;;;;;6.30;3.63;;;;;;;13.68;84.42;95390.97;4938316;28;20023;-76
2021/10/03 02:08:52;;;;;;;6.00;3.67;;;;;;;13.73;83.23;95409.69;4957801;28;20105;-76
2021/10/03 02:11:20;;;;;;;7.03;3.90;;;;;;;13.70;84.76;95386.31;4971897;28;20497;-76
2021/10/03 02:13:46;;;;;;;6.33;4.10;;;;;;;13.71;84.79;95398.50;4954747;28;20034;-76
2021/10/03 02:16:12;;;;;;;7.27;4.33;;;;;;;13.66;85.65;95408.84;4954485;28;20061;-77
2021/10/03 02:18:45;;;;;;;6.47;3.97;;;;;;;13.65;86.64;95394.03;4950753;28;20045;-76
2021/10/03 02:21:12;;;;;;;5.07;3.13;;;;;;;13.60;86.55;95397.25;4955278;28;20031;-76
2021/10/03 02:23:38;;;;;;;9.70;4.67;;;;;;;13.66;87.06;95393.00;4937941;28;20073;-76
2021/10/03 02:26:04;;;;;;;7.73;4.13;;;;;;;13.62;86.41;95376.75;4939530;28;20049;-76
2021/10/03 02:28:30;;;;;;;9.67;4.57;;;;;;;13.68;85.74;95386.50;4951714;28;20031;-76
2021/10/03 02:31:01;;;;;;;8.20;4.73;;;;;;;13.65;86.56;95380.81;4936754;28;20099;-76
2021/10/03 02:33:28;;;;;;;9.03;5.07;;;;;;;13.70;86.22;95375.72;4972825;28;20105;-77
2021/10/03 02:35:55;;;;;;;6.63;4.50;;;;;;;13.70;86.47;95373.09;4953156;28;20123;-76
2021/10/03 02:38:23;;;;;;;7.00;4.00;;;;;;;13.72;85.91;95376.34;4955733;28;20045;-76
2021/10/03 02:40:51;;;;;;;8.10;4.50;;;;;;;13.79;84.56;95363.97;4938919;28;20023;-76
2021/10/03 02:43:18;;;;;;;8.67;4.73;;;;;;;13.79;84.74;95366.63;4954909;28;20101;-77
2021/10/03 02:45:51;;;;;;;6.93;4.10;;;;;;;13.72;85.58;95364.97;4938916;28;20037;-76
2021/10/03 02:48:19;;;;;;;9.73;4.57;;;;;;;13.73;85.19;95374.53;4940365;28;20031;-76
2021/10/03 02:50:52;;;;;;;7.73;3.87;;;;;;;13.62;86.09;95363.53;4951417;28;20023;-76
2021/10/03 02:53:21;;;;;;;6.55;3.95;;;;;;;13.77;84.29;95357.25;4939827;28;20418;-76
2021/10/03 02:55:50;;;;;;;7.23;4.10;;;;;;;13.74;84.51;95365.56;4955866;28;20034;-77
2021/10/03 02:58:17;;;;;;;6.87;4.00;;;;;;;13.73;83.97;95375.34;4939409;28;20121;-76
2021/10/03 03:00:44;;;;;;;7.00;4.17;;;;;;;13.66;85.23;95363.94;4971225;28;20597;-76
2021/10/03 03:03:17;;;;;;;7.00;4.13;;;;;;;13.67;84.62;95357.63;4957648;28;20481;-76
2021/10/03 03:05:43;;;;;;;8.83;4.87;;;;;;;13.74;83.59;95369.03;4956655;28;20125;-76
2021/10/03 03:08:16;;;;;;;6.90;4.43;;;;;;;13.77;83.32;95355.41;4975042;28;20054;-76
2021/10/03 03:10:42;;;;;;;7.05;4.20;;;;;;;13.76;83.92;95350.34;4956719;28;20027;-76
2021/10/03 03:13:08;;;;;;;6.33;4.13;;;;;;;13.75;83.90;95351.34;4973340;28;20409;-76
2021/10/03 03:15:33;;;;;;;6.10;3.33;;;;;;;13.77;84.49;95358.06;4940302;28;20035;-76
2021/10/03 03:17:59;;;;;;;6.73;3.80;;;;;;;13.70;84.62;95367.81;4952582;28;20046;-76
2021/10/03 03:20:25;;;;;;;7.60;4.40;;;;;;;13.67;84.95;95361.09;4947812;28;20027;-76
2021/10/03 03:22:52;;;;;;;6.73;4.20;;;;;;;13.68;84.45;95360.09;4939928;28;20030;-76
2021/10/03 03:25:18;;;;;;;7.67;3.80;;;;;;;13.76;83.49;95350.34;4956390;28;20053;-76
2021/10/03 03:27:43;;;;;;;7.90;4.30;;;;;;;13.74;83.29;95342.59;4939847;28;20097;-76
2021/10/03 03:30:11;;;;;;;5.90;3.90;;;;;;;13.75;83.49;95353.97;4972321;28;20031;-76
2021/10/03 03:32:37;;;;;;;7.77;3.67;;;;;;;13.70;84.52;95345.84;4956330;28;20015;-76
2021/10/03 03:35:05;;;;;;;11.77;7.70;;;;;;;13.72;83.77;95334.09;4949399;28;20685;-76
2021/10/03 03:37:31;;;;;;;13.80;9.37;;;;;;;13.68;84.05;95343.41;4953795;28;20027;-76
2021/10/03 03:39:56;;;;;;;9.30;6.17;;;;;;;13.62;84.79;95337.09;4955679;28;20062;-76
2021/10/03 03:42:22;;;;;;;6.17;4.10;;;;;;;13.61;85.43;95342.56;4973643;28;20663;-76
2021/10/03 03:44:48;;;;;;;6.90;3.70;;;;;;;13.55;85.66;95352.13;4940327;28;20549;-76
2021/10/03 03:47:14;;;;;;;8.20;4.20;;;;;;;13.54;86.16;95341.75;4955870;28;20037;-77
2021/10/03 03:49:39;;;;;;;7.43;3.90;;;;;;;13.57;86.14;95341.34;4967316;28;20779;-76
2021/10/03 03:52:07;;;;;;;6.10;3.47;;;;;;;13.53;86.58;95338.31;4973039;28;20035;-76
2021/10/03 03:54:33;;;;;;;6.87;3.90;;;;;;;13.51;86.77;95327.09;4949860;28;20057;-76
2021/10/03 03:56:59;;;;;;;5.23;3.63;;;;;;;13.54;87.06;95339.91;4952453;28;20486;-76
2021/10/03 03:59:25;;;;;;;8.40;4.47;;;;;;;13.49;87.90;95336.25;4952568;28;20039;-77
2021/10/03 04:01:54;;;;;;;6.70;4.03;;;;;;;13.37;88.54;95336.00;4939282;28;20041;-76
2021/10/03 04:04:20;;;;;;;7.10;4.13;;;;;;;13.41;88.04;95326.66;4954228;28;20035;-76
2021/10/03 04:06:49;;;;;;;7.77;4.07;;;;;;;13.40;87.76;95320.59;4954432;28;20046;-76
2021/10/03 04:09:14;;;;;;;6.87;4.03;;;;;;;13.43;87.64;95320.19;4954918;28;20481;-76
2021/10/03 04:11:40;;;;;;;6.20;3.90;;;;;;;13.47;87.29;95320.59;4953350;28;20086;-76
2021/10/03 04:14:06;;;;;;;6.70;4.03;;;;;;;13.44;87.51;95321.81;4941037;28;20034;-76
2021/10/03 04:16:31;;;;;;;7.83;4.33;;;;;;;13.44;87.71;95319.16;4968222;28;20612;-76
2021/10/03 04:18:57;;;;;;;6.37;3.90;;;;;;;13.45;88.00;95327.94;4968208;28;20089;-76
2021/10/03 04:21:23;;;;;;;6.87;4.23;;;;;;;13.44;87.68;95329.72;4954548;28;20073;-76
2021/10/03 04:23:48;;;;;;;6.63;3.83;;;;;;;13.34;88.40;95325.84;4950599;28;20038;-77
2021/10/03 04:26:14;;;;;;;6.93;4.20;;;;;;;13.29;89.34;95318.53;4940620;28;20040;-76
2021/10/03 04:28:40;;;;;;;6.77;3.97;;;;;;;13.33;89.04;95329.50;4971962;28;20400;-76
2021/10/03 04:31:06;;;;;;;6.27;3.70;;;;;;;13.37;89.26;95331.53;4939355;28;20035;-77
2021/10/03 04:33:32;;;;;;;6.50;4.10;;;;;;;13.28;88.67;95319.56;4929429;29;20031;-76
2021/10/03 04:36:05;;;;;;;9.80;3.83;;;;;;;13.29;88.80;95325.63;4954314;28;20099;-76
2021/10/03 04:38:32;;;;;;;8.00;4.40;;;;;;;13.27;88.51;95320.53;4972493;28;20030;-76
2021/10/03 04:40:57;;;;;;;6.30;3.50;;;;;;;13.33;87.13;95319.75;4935907;29;20023;-76
2021/10/03 04:43:23;;;;;;;7.00;3.80;;;;;;;13.44;84.18;95318.34;4971659;28;21391;-76
2021/10/03 04:45:49;;;;;;;7.07;3.73;;;;;;;13.72;80.91;95298.94;4954914;28;20065;-76
2021/10/03 04:48:15;;;;;;;6.00;3.53;;;;;;;13.81;80.44;95311.72;4938544;28;20401;-77
2021/10/03 04:50:48;;;;;;;9.37;3.83;;;;;;;13.96;78.69;95306.25;4935070;29;20505;-76
2021/10/03 04:53:14;;;;;;;6.93;3.45;;;;;;;14.06;77.46;95293.44;4969512;28;20063;-76
2021/10/03 04:55:42;;;;;;;6.73;3.47;;;;;;;14.08;77.49;95302.00;4937721;28;20038;-75
2021/10/03 04:58:07;;;;;;;5.53;3.40;;;;;;;14.06;77.69;95292.63;4936376;28;20039;-76
2021/10/03 05:00:39;;;;;;;5.80;3.27;;;;;;;14.09;76.81;95290.41;4939882;28;20070;-76
2021/10/03 05:03:05;;;;;;;6.83;3.30;;;;;;;14.13;76.43;95301.38;4954892;28;20097;-76
2021/10/03 05:05:31;;;;;;;5.80;3.47;;;;;;;14.08;77.04;95293.22;4953521;28;20026;-76
2021/10/03 05:07:57;;;;;;;6.47;3.40;;;;;;;14.10;76.78;95285.91;4943651;28;20038;-75
2021/10/03 05:10:39;;;;;;;7.27;3.60;;;;;;;14.07;76.74;95291.59;4953164;28;20023;-76
2021/10/03 05:13:14;;;;;;;5.77;3.83;;;;;;;14.07;76.52;95294.25;4935401;28;20493;-76
2021/10/03 05:15:42;;;;;;;6.17;3.43;;;;;;;14.01;76.82;95289.78;4972384;28;20038;-76
2021/10/03 05:18:17;;;;;;;6.80;4.00;;;;;;;14.01;76.84;95295.88;4970282;28;20031;-76
2021/10/03 05:20:45;;;;;;;7.70;3.63;;;;;;;13.97;77.22;95293.84;4937676;28;20263;-76
2021/10/03 05:23:12;;;;;;;5.47;3.37;;;;;;;13.93;77.35;95290.81;4954471;28;20477;-77
2021/10/03 05:25:38;;;;;;;6.43;3.47;;;;;;;13.91;77.21;95290.97;4931892;28;20724;-76
2021/10/03 05:28:04;;;;;;;7.73;4.00;;;;;;;13.96;76.27;95300.16;4953156;28;20153;-76
2021/10/03 05:30:30;;;;;;;6.67;3.23;;;;;;;14.07;74.88;95302.19;4936105;28;20089;-76
2021/10/03 05:32:55;;;;;;;8.23;3.17;;;;;;;14.03;75.08;95298.31;4934729;28;20034;-77
2021/10/03 05:35:21;;;;;;;5.33;3.17;;;;;;;14.05;75.15;95290.97;4948953;28;20042;-77
2021/10/03 05:37:48;;;;;;;6.30;3.57;;;;;;;14.07;74.49;95291.59;4954104;28;20033;-76
2021/10/03 05:40:14;;;;;;;5.80;3.37;;;;;;;14.03;74.89;95285.09;4952492;28;20035;-76
2021/10/03 05:42:43;;;;;;;6.33;3.40;;;;;;;14.05;75.01;95286.53;4937512;28;20022;-76
2021/10/03 05:45:16;;;;;;;5.63;3.33;;;;;;;14.09;74.66;95286.94;4942597;28;20093;-76
2021/10/03 05:47:41;;;;;;;5.22;2.95;;;;;;;14.11;74.37;95284.88;4968227;28;20035;-76
2021/10/03 05:50:08;;;;;;;7.00;3.77;;;;;;;14.26;73.67;95285.50;4952991;28;20053;-76
2021/10/03 05:52:33;;;;;;;6.20;3.63;;;;;;;14.18;74.88;95290.97;4947690;28;20047;-77
2021/10/03 05:54:59;;;;;;;6.70;3.33;;;;;;;14.29;73.93;95285.09;4934060;28;20030;-76
2021/10/03 05:57:31;;;;;;;5.87;2.80;;;;;;;14.28;73.42;95286.09;4970873;28;20127;-76
2021/10/03 05:59:56;;;;;;;4.93;3.00;;;;;;;14.29;73.05;95293.03;4940758;28;20124;-76
2021/10/03 06:02:25;;;;;;;8.23;3.90;;;;;;;14.48;72.24;95288.72;4953160;28;20074;-76
2021/10/03 06:04:55;;;;;;;6.37;3.67;;;;;;;14.49;72.00;95285.06;4969717;28;20109;-76
2021/10/03 06:07:21;;;;;;;5.67;3.40;;;;;;;14.44;71.89;95289.34;4952980;28;20116;-76
2021/10/03 06:09:49;;;;;;;5.83;3.33;;;;;;;14.54;71.29;95295.03;4950230;28;20537;-76
2021/10/03 06:12:15;;;;;;;5.43;3.20;;;;;;;14.57;70.81;95286.69;4968153;28;20086;-78
2021/10/03 06:14:44;;;;;;;6.27;3.03;;;;;;;14.63;70.16;95299.09;4928251;28;20987;-77
2021/10/03 06:17:11;;;;;;;6.03;3.37;;;;;;;14.70;70.62;95299.91;4947899;28;20038;-76
2021/10/03 06:19:37;;;;;;;5.73;3.10;;;;;;;14.73;70.16;95296.84;4951667;28;20088;-76
2021/10/03 06:22:03;;;;;;;5.87;2.97;;;;;;;14.65;68.95;95290.94;4950851;28;20045;-76
2021/10/03 06:24:29;;;;;;;6.17;3.03;;;;;;;14.74;68.82;95298.44;4930476;28;20482;-76
2021/10/03 06:26:55;;;;;;;7.93;3.80;;;;;;;14.73;69.18;95294.19;4949139;28;20090;-76
2021/10/03 06:29:20;;;;;;;5.30;3.00;;;;;;;14.73;69.33;95294.19;4951047;28;20448;-76
2021/10/03 06:31:47;;;;;;;5.23;3.17;;;;;;;14.82;69.01;95287.66;4948137;28;20046;-76
2021/10/03 06:34:15;;;;;;;5.27;3.23;;;;;;;14.97;68.18;95295.34;4946481;28;20033;-76
2021/10/03 06:36:42;;;;;;;5.93;3.17;;;;;;;14.87;68.58;95300.25;4937684;28;20124;-76
2021/10/03 06:39:07;;;;;;;6.80;3.13;;;;;;;14.89;68.40;95305.31;4950248;28;20027;-76
2021/10/03 06:41:33;;;;;;;4.60;2.50;;;;;;;15.16;66.85;95304.22;4952962;28;20390;-76
2021/10/03 06:43:59;;;;;;;6.23;2.67;;;;;;;15.29;66.36;95304.16;4937203;28;20035;-76
2021/10/03 06:46:25;;;;;;;6.97;3.13;;;;;;;15.47;65.79;95300.00;4936145;28;20477;-76
2021/10/03 06:48:52;;;;;;;3.90;2.30;;;;;;;15.85;63.13;95291.22;4932167;29;20037;-76
2021/10/03 06:51:17;;;;;;;4.73;2.70;;;;;;;16.14;62.82;95279.97;4931690;28;20062;-76
2021/10/03 06:53:43;;;;;;;4.47;2.53;;;;;;;16.34;62.03;95279.81;4936246;28;20030;-76
2021/10/03 06:56:09;;;;;;;4.82;2.58;;;;;;;16.49;61.89;95279.44;4926822;28;20039;-76
2021/10/03 06:58:36;;;;;;;4.97;2.83;;;;;;;16.67;61.15;95283.97;4951180;28;20030;-76
2021/10/03 07:01:04;;;;;;;8.27;3.15;;;;;;;16.86;60.75;95284.81;4935088;28;20182;-76
2021/10/03 07:03:37;;;;;;;5.03;2.85;;;;;;;17.11;59.42;95280.22;4967000;28;20023;-75
2021/10/03 07:06:03;;;;;;;5.03;2.78;;;;;;;17.08;58.56;95290.50;4950097;28;20037;-75
2021/10/03 07:08:29;;;;;;;5.03;2.70;;;;;;;17.20;58.30;95280.72;4950339;28;20030;-76
2021/10/03 07:10:54;;;;;;;4.82;2.85;;;;;;;16.90;59.64;95293.94;4966092;28;20085;-76
2021/10/03 07:13:20;;;;;;;4.57;2.33;;;;;;;16.67;59.60;95294.59;4952574;28;20054;-76
2021/10/03 07:15:46;;;;;;;4.38;2.60;;;;;;;16.76;59.82;95301.25;4937882;28;20031;-76
2021/10/03 07:18:12;;;;;;;5.55;2.80;;;;;;;16.44;60.42;95305.84;4945148;28;20114;-76
2021/10/03 07:20:38;;;;;;;5.35;2.60;;;;;;;16.52;60.81;95299.44;4969956;28;20034;-76
2021/10/03 07:23:04;;;;;;;4.82;2.65;;;;;;;16.63;60.35;95310.16;4952420;28;20114;-76
2021/10/03 07:25:30;;;;;;;4.85;2.58;;;;;;;16.75;59.97;95309.44;4952426;28;20030;-76
2021/10/03 07:27:56;;;;;;;4.93;2.60;;;;;;;16.70;60.08;95318.06;4951814;28;20110;-76
2021/10/03 07:30:21;;;;;;;5.85;3.10;;;;;;;16.50;60.76;95315.59;4936784;28;20443;-76
2021/10/03 07:32:49;;;;;;;5.35;2.63;;;;;;;16.20;62.01;95310.94;4935494;28;20046;-76
2021/10/03 07:35:15;;;;;;;5.20;2.88;;;;;;;16.29;62.31;95311.47;4951877;28;20038;-76
2021/10/03 07:37:41;;;;;;;4.57;2.30;;;;;;;16.23;61.61;95312.34;4936247;28;20034;-76
2021/10/03 07:40:07;;;;;;;4.30;2.30;;;;;;;16.26;61.55;95312.75;4937599;28;20481;-76
2021/10/03 07:42:33;;;;;;;5.10;3.00;;;;;;;16.44;60.86;95311.16;4953032;28;20564;-75
2021/10/03 07:44:58;;;;;;;5.25;2.85;;;;;;;16.39;60.16;95313.63;4949617;28;20042;-76
2021/10/03 07:47:24;;;;;;;4.85;2.47;;;;;;;16.35;60.53;95323.88;4949846;28;20066;-76
2021/10/03 07:49:51;;;;;;;6.75;2.85;;;;;;;16.54;59.56;95319.44;4952925;28;20109;-75
2021/10/03 07:52:19;;;;;;;10.98;2.60;;;;;;;16.54;58.77;95321.28;4948868;28;20093;-76
2021/10/03 07:54:44;;;;;;;4.05;2.05;;;;;;;16.62;58.07;95318.31;4953955;28;20042;-75
2021/10/03 07:57:12;;;;;;;5.13;2.60;;;;;;;16.71;57.64;95325.78;4953135;28;20468;-76
2021/10/03 07:59:37;;;;;;;4.95;2.72;;;;;;;16.65;57.83;95325.84;4973144;28;20035;-75
2021/10/03 08:02:03;;;;;;;3.78;2.28;;;;;;;16.81;57.71;95332.47;4955435;28;20061;-76
2021/10/03 08:04:30;;;;;;;3.88;2.22;;;;;;;16.95;57.49;95336.59;4929832;28;20401;-76
2021/10/03 08:06:56;;;;;;;6.50;2.08;;;;;;;17.18;56.81;95331.44;4941356;28;20077;-76
2021/10/03 08:09:22;;;;;;;4.60;2.30;;;;;;;17.34;56.65;95338.00;4975782;28;20039;-76
2021/10/03 08:11:48;;;;;;;4.43;2.20;;;;;;;17.46;58.45;95334.56;4955384;28;20023;-76
2021/10/03 08:14:15;;;;;;;3.95;2.40;;;;;;;17.28;63.57;95328.25;4954132;28;20669;-76
2021/10/03 08:16:44;;;;;;;4.13;2.63;;;;;;;17.39;64.53;95332.81;4929974;28;20497;-76
2021/10/03 08:19:10;;;;;;;4.63;2.60;;;;;;;17.49;63.91;95340.25;4937215;28;20108;-76
2021/10/03 08:21:37;;;;;;;6.20;3.40;;;;;;;17.59;63.25;95337.88;4954809;28;20121;-76
2021/10/03 08:24:03;;;;;;;5.97;3.33;;;;;;;17.59;63.69;95345.03;4934725;28;20504;-76
2021/10/03 08:26:29;;;;;;;6.30;2.75;;;;;;;17.54;63.60;95337.75;4952709;28;20030;-76
2021/10/03 08:28:55;;;;;;;4.20;2.47;;;;;;;17.50;62.83;95339.22;4953151;28;20639;-76
2021/10/03 08:31:22;;;;;;;4.13;2.55;;;;;;;17.53;60.26;95336.09;4972825;28;20037;-76
2021/10/03 08:33:50;;;;;;;5.13;2.40;;;;;;;17.65;61.14;95336.97;4954238;28;20035;-76
2021/10/03 08:36:16;;;;;;;4.13;2.55;;;;;;;17.64;61.40;95332.72;4971654;28;20037;-77
2021/10/03 08:38:42;;;;;;;5.07;2.72;;;;;;;17.46;62.14;95334.56;4954787;28;20035;-76
2021/10/03 08:41:08;;;;;;;4.88;2.28;;;;;;;17.74;60.73;95339.31;4952827;28;20448;-76
2021/10/03 08:43:34;;;;;;;5.10;3.08;;;;;;;17.90;58.91;95336.03;4954262;28;20044;-76
2021/10/03 08:46:01;;;;;;;5.82;2.58;;;;;;;17.93;57.61;95338.25;4954696;28;20393;-76
2021/10/03 08:48:29;;;;;;;4.13;2.40;;;;;;;17.87;56.42;95325.84;4953453;28;20035;-76
2021/10/03 08:50:55;;;;;;;4.68;2.28;;;;;;;18.01;57.11;95327.31;4966944;28;20023;-76
2021/10/03 08:53:23;;;;;;;3.83;2.25;;;;;;;17.87;58.08;95336.50;4938706;28;20035;-76
2021/10/03 08:55:51;;;;;;;4.13;2.55;;;;;;;17.77;54.70;95325.59;4934469;29;20093;-76
2021/10/03 08:58:17;;;;;;;3.88;2.42;;;;;;;17.81;54.76;95324.13;4974998;28;20492;-76
2021/10/03 09:00:48;;;;;;;5.05;2.40;;;;;;;17.77;56.50;95328.25;4942578;29;20089;-76
2021/10/03 09:03:17;;;;;;;4.97;2.70;;;;;;;17.74;54.76;95320.69;4956339;28;20042;-75
2021/10/03 09:05:53;;;;;;;5.45;2.90;;;;;;;17.79;55.08;95313.69;4959432;28;20034;-77
2021/10/03 09:08:22;;;;;;;5.47;2.30;;;;;;;17.76;56.38;95308.00;4963454;28;20715;-76
2021/10/03 09:10:54;;;;;;;5.72;2.38;;;;;;;17.81;55.42;95310.84;4958273;28;20025;-76
2021/10/03 09:13:34;;;;;;;40.20;32.80;;;;;;;18.23;56.47;95305.47;4950808;28;20133;-76
2021/10/03 09:16:33;;;;;;;9.90;7.28;;;;;;;18.98;55.58;95310.09;4960738;28;20042;-76
2021/10/03 09:19:13;;;;;;;5.70;2.42;;;;;;;19.40;54.03;95300.03;4949402;28;20063;-76
2021/10/03 09:21:42;;;;;;;3.55;2.05;;;;;;;19.91;53.90;95285.00;4947701;28;20074;-76
2021/10/03 09:24:14;;;;;;;3.60;2.20;;;;;;;20.48;52.02;95287.50;4937187;28;20038;-76
2021/10/03 09:27:00;;;;;;;6.57;3.50;;;;;;;20.13;52.20;95279.75;4949368;28;20405;-76
2021/10/03 09:29:30;;;;;;;6.38;4.25;;;;;;;19.81;53.86;95273.34;4945350;28;20483;-76
2021/10/03 09:32:07;;;;;;;8.98;6.05;;;;;;;19.89;55.03;95272.97;4971674;28;20402;-76
2021/10/03 09:34:33;;;;;;;5.10;3.35;;;;;;;19.61;56.02;95263.09;4950014;28;20686;-76
2021/10/03 09:37:32;;;;;;;4.63;3.00;;;;;;;19.52;57.24;95265.34;4970808;28;20496;-76
2021/10/03 09:40:15;;;;;;;6.45;3.17;;;;;;;19.37;56.88;95259.72;4977842;28;20030;-75
2021/10/03 09:42:54;;;;;;;15.95;2.78;;;;;;;19.45;56.35;95262.00;4955384;28;20031;-75
2021/10/03 09:45:22;;;;;;;5.88;2.60;;;;;;;19.40;56.05;95265.38;4978926;28;20114;-76
2021/10/03 09:48:05;;;;;;;4.38;2.15;;;;;;;19.69;50.64;95260.06;4976107;28;20701;-76
2021/10/03 09:50:34;;;;;;;5.47;2.17;;;;;;;19.94;48.96;95265.84;4958170;28;20037;-76
2021/10/03 09:53:00;;;;;;;4.28;2.35;;;;;;;20.08;48.67;95268.19;4955219;28;20103;-76
2021/10/03 09:55:27;;;;;;;3.28;2.00;;;;;;;20.18;49.01;95263.00;4969708;28;20113;-75
2021/10/03 09:57:57;;;;;;;6.28;2.35;;;;;;;20.14;50.72;95272.56;4952985;28;20030;-75
2021/10/03 10:00:27;;;;;;;4.32;2.60;;;;;;;20.08;51.79;95281.53;4953810;28;20118;-75
2021/10/03 10:02:54;;;;;;;3.85;1.63;;;;;;;20.24;47.66;95286.88;4970810;28;20886;-76
2021/10/03 10:05:23;;;;;;;2.92;1.73;;;;;;;20.25;46.70;95288.50;4952964;28;20027;-75
2021/10/03 10:07:49;;;;;;;6.07;2.70;;;;;;;20.26;49.09;95289.31;4955651;28;20042;-76
2021/10/03 10:10:15;;;;;;;3.40;1.80;;;;;;;20.20;47.06;95282.28;4937962;28;20111;-75
2021/10/03 10:12:48;;;;;;;4.25;2.35;;;;;;;20.10;47.18;95292.78;4936991;28;20037;-76
2021/10/03 10:15:20;;;;;;;;;;;;;;;19.96;46.66;95294.97;4960721;28;20049;-76
2021/10/03 10:17:45;;;;;;;7.63;2.40;;;;;;;20.04;46.31;95285.75;4955152;28;19917;-75
2021/10/03 10:20:17;;;;;;;6.03;2.13;;;;;;;20.07;46.16;95287.94;4937222;28;20174;-75
2021/10/03 10:22:57;;;;;;;3.10;1.70;;;;;;;20.20;45.89;95284.94;4936829;29;20129;-75
2021/10/03 10:25:45;;;;;;;4.03;2.28;;;;;;;20.36;45.12;95289.47;4973586;28;20088;-75
2021/10/03 10:28:23;;;;;;;5.28;2.40;;;;;;;20.32;45.83;95293.69;4967835;28;20030;-76
2021/10/03 10:31:13;;;;;;;5.18;2.67;;;;;;;20.41;45.98;95286.88;4951456;28;20035;-76
2021/10/03 10:33:52;;;;;;;3.78;1.88;;;;;;;20.64;45.48;95282.44;4951462;28;20041;-75
2021/10/03 10:36:29;;;;;;;3.78;2.00;;;;;;;20.55;45.95;95282.03;4936575;28;20039;-75
2021/10/03 10:39:07;;;;;;;7.88;2.17;;;;;;;20.36;49.03;95278.78;4951127;28;20038;-76
2021/10/03 10:41:36;;;;;;;5.70;2.42;;;;;;;20.21;51.52;95287.34;4933120;28;20042;-76
2021/10/03 10:44:27;;;;;;;6.38;2.50;;;;;;;20.45;51.73;95281.84;4973030;28;20018;-75
2021/10/03 10:47:15;;;;;;;5.18;2.40;;;;;;;20.34;51.46;95275.53;4964714;28;20475;-75
2021/10/03 10:49:41;;;;;;;5.00;2.50;;;;;;;20.40;51.81;95279.13;4948913;28;20396;-75
2021/10/03 10:52:22;;;;;;;8.00;6.00;;;;;;;20.45;53.00;95289.84;4935775;28;20043;-75
2021/10/03 10:55:09;;;;;;;6.15;3.53;;;;;;;20.45;53.82;95288.00;4951446;28;20041;-75
2021/10/03 10:57:50;;;;;;;4.13;2.70;;;;;;;20.47;55.09;95291.22;4936522;28;20054;-76
2021/10/03 11:00:23;;;;;;;3.95;2.10;;;;;;;20.42;53.81;95274.31;4945018;28;20413;-75
2021/10/03 11:02:56;;;;;;;4.32;2.22;;;;;;;20.41;54.18;95270.84;4955607;28;20030;-75
2021/10/03 11:05:34;;;;;;;4.82;2.03;;;;;;;20.43;55.20;95270.63;4951439;28;20035;-76
2021/10/03 11:08:15;;;;;;;3.35;2.22;;;;;;;20.65;48.48;95276.81;4946724;28;20039;-75
2021/10/03 11:11:09;;;;;;;5.60;2.50;;;;;;;21.06;47.28;95269.38;4944127;28;20054;-75
2021/10/03 11:13:38;;;;;;;5.45;2.22;;;;;;;21.19;47.71;95277.03;4947730;28;20046;-75
2021/10/03 11:16:32;;;;;;;13.45;8.77;;;;;;;21.16;48.56;95266.81;4934727;28;20031;-76
2021/10/03 11:19:03;;;;;;;8.40;5.45;;;;;;;21.23;49.12;95277.31;4948560;28;20114;-75
2021/10/03 11:21:35;;;;;;;4.32;2.35;;;;;;;21.26;47.23;95260.78;4952136;28;20074;-75
2021/10/03 11:24:05;;;;;;;8.95;3.15;;;;;;;21.41;49.72;95270.88;4939412;28;20381;-76
2021/10/03 11:27:07;;;;;;;4.93;2.30;;;;;;;20.97;51.53;95272.72;4951232;28;20113;-75
2021/10/03 11:29:47;;;;;;;5.35;3.10;;;;;;;21.09;52.69;95278.75;4922803;28;20042;-76
2021/10/03 11:32:15;;;;;;;3.88;1.98;;;;;;;21.11;52.48;95268.63;4930502;28;20043;-76
2021/10/03 11:34:46;;;;;;;4.32;2.15;;;;;;;21.18;49.84;95274.59;4970379;28;20439;-76
2021/10/03 11:37:34;;;;;;;6.40;2.25;;;;;;;21.04;47.55;95268.00;4942501;28;20489;-76
2021/10/03 11:40:11;;;;;;;5.07;1.88;;;;;;;21.30;48.02;95264.56;4935759;28;20078;-75
2021/10/03 11:42:53;;;;;;;3.97;2.28;;;;;;;21.37;47.62;95257.19;4946001;28;20034;-76